sensor_id;sensor_type;location;lat;lon;timestamp;P1;durP1;ratioP1;P2;durP2;ratioP2
15952;SDS011;8075;47.766;8.846;2022-12-18T00:00:44;61.40;;;36.85;;
15952;SDS011;8075;47.766;8.846;2022-12-18T00:03:12;62.47;;;36.20;;
15952;SDS011;8075;47.766;8.846;2022-12-18T00:05:45;67.05;;;37.28;;
15952;SDS011;8075;47.766;8.846;2022-12-18T00:08:11;63.47;;;36.88;;
15952;SDS011;8075;47.766;8.846;2022-12-18T00:10:37;63.00;;;36.30;;
15952;SDS011;8075;47.766;8.846;2022-12-18T00:13:03;60.45;;;35.85;;
15952;SDS011;8075;47.766;8.846;2022-12-18T00:15:29;64.75;;;37.08;;
15952;SDS011;8075;47.766;8.846;2022-12-18T00:17:55;65.95;;;37.75;;
15952;SDS011;8075;47.766;8.846;2022-12-18T00:20:21;66.22;;;37.65;;
15952;SDS011;8075;47.766;8.846;2022-12-18T00:22:50;67.50;;;38.03;;
15952;SDS011;8075;47.766;8.846;2022-12-18T00:25:16;65.97;;;37.17;;
15952;SDS011;8075;47.766;8.846;2022-12-18T00:27:42;62.10;;;36.53;;
15952;SDS011;8075;47.766;8.846;2022-12-18T00:30:09;68.60;;;38.58;;
15952;SDS011;8075;47.766;8.846;2022-12-18T00:32:35;66.00;;;38.20;;
15952;SDS011;8075;47.766;8.846;2022-12-18T00:35:02;64.45;;;37.05;;
15952;SDS011;8075;47.766;8.846;2022-12-18T00:37:28;68.60;;;38.25;;
15952;SDS011;8075;47.766;8.846;2022-12-18T00:39:54;67.85;;;38.05;;
15952;SDS011;8075;47.766;8.846;2022-12-18T00:42:20;69.93;;;39.25;;
15952;SDS011;8075;47.766;8.846;2022-12-18T00:45:04;62.95;;;37.10;;
15952;SDS011;8075;47.766;8.846;2022-12-18T00:47:30;66.25;;;38.00;;
15952;SDS011;8075;47.766;8.846;2022-12-18T00:49:56;70.47;;;38.92;;
15952;SDS011;8075;47.766;8.846;2022-12-18T00:52:22;69.07;;;38.45;;
15952;SDS011;8075;47.766;8.846;2022-12-18T00:54:48;70.93;;;39.43;;
15952;SDS011;8075;47.766;8.846;2022-12-18T00:57:14;70.35;;;39.10;;
15952;SDS011;8075;47.766;8.846;2022-12-18T00:59:40;69.10;;;38.05;;
15952;SDS011;8075;47.766;8.846;2022-12-18T01:02:06;71.50;;;38.70;;
15952;SDS011;8075;47.766;8.846;2022-12-18T01:04:32;70.72;;;38.90;;
15952;SDS011;8075;47.766;8.846;2022-12-18T01:06:58;70.90;;;38.63;;
15952;SDS011;8075;47.766;8.846;2022-12-18T01:09:24;69.07;;;38.85;;
15952;SDS011;8075;47.766;8.846;2022-12-18T01:11:51;69.07;;;38.13;;
15952;SDS011;8075;47.766;8.846;2022-12-18T01:14:17;67.05;;;38.30;;
15952;SDS011;8075;47.766;8.846;2022-12-18T01:16:43;72.70;;;40.07;;
15952;SDS011;8075;47.766;8.846;2022-12-18T01:19:09;70.65;;;38.67;;
15952;SDS011;8075;47.766;8.846;2022-12-18T01:21:35;74.73;;;41.17;;
15952;SDS011;8075;47.766;8.846;2022-12-18T01:24:01;73.88;;;40.70;;
15952;SDS011;8075;47.766;8.846;2022-12-18T01:26:27;72.60;;;40.37;;
15952;SDS011;8075;47.766;8.846;2022-12-18T01:28:55;74.72;;;40.38;;
15952;SDS011;8075;47.766;8.846;2022-12-18T01:31:26;76.80;;;41.97;;
15952;SDS011;8075;47.766;8.846;2022-12-18T01:33:52;75.03;;;41.28;;
15952;SDS011;8075;47.766;8.846;2022-12-18T01:36:19;80.60;;;42.55;;
15952;SDS011;8075;47.766;8.846;2022-12-18T01:38:46;78.13;;;42.13;;
15952;SDS011;8075;47.766;8.846;2022-12-18T01:41:12;74.20;;;40.78;;
15952;SDS011;8075;47.766;8.846;2022-12-18T01:43:42;73.63;;;40.05;;
15952;SDS011;8075;47.766;8.846;2022-12-18T01:46:08;71.70;;;39.47;;
15952;SDS011;8075;47.766;8.846;2022-12-18T01:48:34;71.97;;;39.67;;
15952;SDS011;8075;47.766;8.846;2022-12-18T01:51:00;76.50;;;40.35;;
15952;SDS011;8075;47.766;8.846;2022-12-18T01:53:27;76.68;;;41.47;;
15952;SDS011;8075;47.766;8.846;2022-12-18T01:55:55;75.97;;;40.80;;
15952;SDS011;8075;47.766;8.846;2022-12-18T01:58:27;80.50;;;43.22;;
15952;SDS011;8075;47.766;8.846;2022-12-18T02:00:54;79.22;;;42.13;;
15952;SDS011;8075;47.766;8.846;2022-12-18T02:03:20;76.18;;;41.97;;
15952;SDS011;8075;47.766;8.846;2022-12-18T02:09:03;80.45;;;42.50;;
15952;SDS011;8075;47.766;8.846;2022-12-18T02:11:23;76.88;;;41.75;;
15952;SDS011;8075;47.766;8.846;2022-12-18T02:14:11;78.57;;;41.30;;
15952;SDS011;8075;47.766;8.846;2022-12-18T02:16:50;78.68;;;42.83;;
15952;SDS011;8075;47.766;8.846;2022-12-18T02:21:49;78.93;;;42.22;;
15952;SDS011;8075;47.766;8.846;2022-12-18T02:24:42;79.38;;;42.72;;
15952;SDS011;8075;47.766;8.846;2022-12-18T02:27:10;81.13;;;42.53;;
15952;SDS011;8075;47.766;8.846;2022-12-18T02:29:41;80.72;;;42.28;;
15952;SDS011;8075;47.766;8.846;2022-12-18T02:32:10;83.30;;;43.92;;
15952;SDS011;8075;47.766;8.846;2022-12-18T02:34:39;82.03;;;42.90;;
15952;SDS011;8075;47.766;8.846;2022-12-18T02:37:06;77.95;;;42.28;;
15952;SDS011;8075;47.766;8.846;2022-12-18T02:39:34;74.55;;;41.47;;
15952;SDS011;8075;47.766;8.846;2022-12-18T02:42:01;75.97;;;41.33;;
15952;SDS011;8075;47.766;8.846;2022-12-18T02:44:32;74.20;;;41.17;;
15952;SDS011;8075;47.766;8.846;2022-12-18T02:46:58;72.85;;;39.10;;
15952;SDS011;8075;47.766;8.846;2022-12-18T02:52:13;71.53;;;39.17;;
15952;SDS011;8075;47.766;8.846;2022-12-18T02:57:20;72.30;;;39.92;;
15952;SDS011;8075;47.766;8.846;2022-12-18T03:02:23;74.18;;;40.53;;
15952;SDS011;8075;47.766;8.846;2022-12-18T03:05:14;75.20;;;40.42;;
15952;SDS011;8075;47.766;8.846;2022-12-18T03:07:43;72.00;;;40.22;;
15952;SDS011;8075;47.766;8.846;2022-12-18T03:10:11;77.80;;;41.00;;
15952;SDS011;8075;47.766;8.846;2022-12-18T03:12:38;74.28;;;40.00;;
15952;SDS011;8075;47.766;8.846;2022-12-18T03:17:36;69.97;;;38.30;;
15952;SDS011;8075;47.766;8.846;2022-12-18T03:20:13;72.15;;;39.72;;
15952;SDS011;8075;47.766;8.846;2022-12-18T03:22:40;72.78;;;39.55;;
15952;SDS011;8075;47.766;8.846;2022-12-18T03:25:09;75.20;;;40.43;;
15952;SDS011;8075;47.766;8.846;2022-12-18T03:27:37;75.90;;;40.05;;
15952;SDS011;8075;47.766;8.846;2022-12-18T03:30:05;73.90;;;40.15;;
15952;SDS011;8075;47.766;8.846;2022-12-18T03:32:54;78.15;;;41.13;;
15952;SDS011;8075;47.766;8.846;2022-12-18T03:35:21;77.30;;;40.60;;
15952;SDS011;8075;47.766;8.846;2022-12-18T03:37:48;77.25;;;41.75;;
15952;SDS011;8075;47.766;8.846;2022-12-18T03:40:14;79.50;;;42.75;;
15952;SDS011;8075;47.766;8.846;2022-12-18T03:42:43;74.22;;;40.88;;
15952;SDS011;8075;47.766;8.846;2022-12-18T03:45:14;80.32;;;41.17;;
15952;SDS011;8075;47.766;8.846;2022-12-18T03:50:13;72.05;;;39.58;;
15952;SDS011;8075;47.766;8.846;2022-12-18T03:52:41;74.07;;;39.93;;
15952;SDS011;8075;47.766;8.846;2022-12-18T03:55:10;72.60;;;39.15;;
15952;SDS011;8075;47.766;8.846;2022-12-18T03:57:36;72.45;;;39.97;;
15952;SDS011;8075;47.766;8.846;2022-12-18T04:00:05;69.22;;;38.97;;
15952;SDS011;8075;47.766;8.846;2022-12-18T04:02:31;72.15;;;38.35;;
15952;SDS011;8075;47.766;8.846;2022-12-18T04:04:58;67.18;;;37.40;;
15952;SDS011;8075;47.766;8.846;2022-12-18T04:07:25;65.03;;;36.50;;
15952;SDS011;8075;47.766;8.846;2022-12-18T04:09:52;67.85;;;36.55;;
15952;SDS011;8075;47.766;8.846;2022-12-18T04:12:19;64.95;;;36.17;;
15952;SDS011;8075;47.766;8.846;2022-12-18T04:14:45;63.22;;;36.03;;
15952;SDS011;8075;47.766;8.846;2022-12-18T04:17:11;63.08;;;35.92;;
15952;SDS011;8075;47.766;8.846;2022-12-18T04:19:37;64.30;;;36.95;;
15952;SDS011;8075;47.766;8.846;2022-12-18T04:22:03;62.97;;;35.85;;
15952;SDS011;8075;47.766;8.846;2022-12-18T04:24:29;62.70;;;36.17;;
15952;SDS011;8075;47.766;8.846;2022-12-18T04:26:55;59.75;;;34.88;;
15952;SDS011;8075;47.766;8.846;2022-12-18T04:29:21;68.63;;;37.25;;
15952;SDS011;8075;47.766;8.846;2022-12-18T04:31:47;65.60;;;36.10;;
15952;SDS011;8075;47.766;8.846;2022-12-18T04:34:13;64.22;;;35.85;;
15952;SDS011;8075;47.766;8.846;2022-12-18T04:36:39;63.55;;;35.70;;
15952;SDS011;8075;47.766;8.846;2022-12-18T04:39:05;64.63;;;35.20;;
15952;SDS011;8075;47.766;8.846;2022-12-18T04:41:31;63.80;;;35.63;;
15952;SDS011;8075;47.766;8.846;2022-12-18T04:44:14;63.40;;;36.00;;
15952;SDS011;8075;47.766;8.846;2022-12-18T04:46:46;61.97;;;34.92;;
15952;SDS011;8075;47.766;8.846;2022-12-18T04:49:12;64.03;;;35.33;;
15952;SDS011;8075;47.766;8.846;2022-12-18T04:51:39;64.00;;;36.10;;
15952;SDS011;8075;47.766;8.846;2022-12-18T04:54:08;66.20;;;35.38;;
15952;SDS011;8075;47.766;8.846;2022-12-18T04:56:34;61.80;;;34.47;;
15952;SDS011;8075;47.766;8.846;2022-12-18T04:59:00;62.28;;;36.22;;
15952;SDS011;8075;47.766;8.846;2022-12-18T05:01:26;64.90;;;35.47;;
15952;SDS011;8075;47.766;8.846;2022-12-18T05:03:52;64.18;;;35.88;;
15952;SDS011;8075;47.766;8.846;2022-12-18T05:06:18;60.55;;;34.20;;
15952;SDS011;8075;47.766;8.846;2022-12-18T05:08:44;72.70;;;39.80;;
15952;SDS011;8075;47.766;8.846;2022-12-18T05:11:11;65.00;;;36.15;;
15952;SDS011;8075;47.766;8.846;2022-12-18T05:13:40;59.60;;;34.20;;
15952;SDS011;8075;47.766;8.846;2022-12-18T05:16:06;61.25;;;35.33;;
15952;SDS011;8075;47.766;8.846;2022-12-18T05:18:32;62.67;;;34.40;;
15952;SDS011;8075;47.766;8.846;2022-12-18T05:20:58;56.60;;;32.50;;
15952;SDS011;8075;47.766;8.846;2022-12-18T05:23:24;61.45;;;34.40;;
15952;SDS011;8075;47.766;8.846;2022-12-18T05:25:58;60.00;;;34.20;;
15952;SDS011;8075;47.766;8.846;2022-12-18T05:28:25;60.30;;;34.47;;
15952;SDS011;8075;47.766;8.846;2022-12-18T05:30:52;59.67;;;33.25;;
15952;SDS011;8075;47.766;8.846;2022-12-18T05:33:18;58.20;;;33.35;;
15952;SDS011;8075;47.766;8.846;2022-12-18T05:35:49;57.85;;;33.17;;
15952;SDS011;8075;47.766;8.846;2022-12-18T05:38:15;58.85;;;33.45;;
15952;SDS011;8075;47.766;8.846;2022-12-18T05:40:42;55.93;;;31.97;;
15952;SDS011;8075;47.766;8.846;2022-12-18T05:43:08;59.85;;;33.70;;
15952;SDS011;8075;47.766;8.846;2022-12-18T05:45:36;57.53;;;32.60;;
15952;SDS011;8075;47.766;8.846;2022-12-18T05:48:03;57.72;;;33.25;;
15952;SDS011;8075;47.766;8.846;2022-12-18T05:50:29;59.60;;;33.67;;
15952;SDS011;8075;47.766;8.846;2022-12-18T05:52:55;57.85;;;33.55;;
15952;SDS011;8075;47.766;8.846;2022-12-18T05:55:21;59.80;;;34.00;;
15952;SDS011;8075;47.766;8.846;2022-12-18T05:57:47;60.10;;;33.80;;
15952;SDS011;8075;47.766;8.846;2022-12-18T06:00:13;62.10;;;34.85;;
15952;SDS011;8075;47.766;8.846;2022-12-18T06:02:39;57.75;;;33.30;;
15952;SDS011;8075;47.766;8.846;2022-12-18T06:05:05;60.92;;;34.00;;
15952;SDS011;8075;47.766;8.846;2022-12-18T06:07:31;62.72;;;34.80;;
15952;SDS011;8075;47.766;8.846;2022-12-18T06:09:57;59.13;;;33.87;;
15952;SDS011;8075;47.766;8.846;2022-12-18T06:12:23;60.80;;;33.95;;
15952;SDS011;8075;47.766;8.846;2022-12-18T06:14:49;59.15;;;33.15;;
15952;SDS011;8075;47.766;8.846;2022-12-18T06:17:15;62.78;;;34.35;;
15952;SDS011;8075;47.766;8.846;2022-12-18T06:19:41;56.00;;;31.83;;
15952;SDS011;8075;47.766;8.846;2022-12-18T06:22:07;59.97;;;33.10;;
15952;SDS011;8075;47.766;8.846;2022-12-18T06:24:33;53.83;;;31.37;;
15952;SDS011;8075;47.766;8.846;2022-12-18T06:26:59;60.95;;;32.67;;
15952;SDS011;8075;47.766;8.846;2022-12-18T06:29:25;60.53;;;33.63;;
15952;SDS011;8075;47.766;8.846;2022-12-18T06:31:51;57.38;;;31.90;;
15952;SDS011;8075;47.766;8.846;2022-12-18T06:34:17;55.25;;;30.58;;
15952;SDS011;8075;47.766;8.846;2022-12-18T06:36:43;54.67;;;31.25;;
15952;SDS011;8075;47.766;8.846;2022-12-18T06:39:09;55.13;;;31.10;;
15952;SDS011;8075;47.766;8.846;2022-12-18T06:41:35;57.13;;;32.38;;
15952;SDS011;8075;47.766;8.846;2022-12-18T06:44:01;56.10;;;32.83;;
15952;SDS011;8075;47.766;8.846;2022-12-18T06:46:26;56.38;;;32.25;;
15952;SDS011;8075;47.766;8.846;2022-12-18T06:48:52;58.60;;;33.33;;
15952;SDS011;8075;47.766;8.846;2022-12-18T06:51:22;58.97;;;33.47;;
15952;SDS011;8075;47.766;8.846;2022-12-18T06:53:49;59.80;;;32.15;;
15952;SDS011;8075;47.766;8.846;2022-12-18T06:56:15;62.20;;;33.30;;
15952;SDS011;8075;47.766;8.846;2022-12-18T06:58:41;60.00;;;33.30;;
15952;SDS011;8075;47.766;8.846;2022-12-18T07:01:08;59.70;;;33.33;;
15952;SDS011;8075;47.766;8.846;2022-12-18T07:03:35;59.78;;;34.30;;
15952;SDS011;8075;47.766;8.846;2022-12-18T07:06:01;61.72;;;33.80;;
15952;SDS011;8075;47.766;8.846;2022-12-18T07:08:28;57.60;;;32.50;;
15952;SDS011;8075;47.766;8.846;2022-12-18T07:10:54;53.72;;;31.42;;
15952;SDS011;8075;47.766;8.846;2022-12-18T07:13:20;60.95;;;33.47;;
15952;SDS011;8075;47.766;8.846;2022-12-18T07:15:46;59.90;;;33.47;;
15952;SDS011;8075;47.766;8.846;2022-12-18T07:18:12;57.67;;;33.80;;
15952;SDS011;8075;47.766;8.846;2022-12-18T07:20:38;61.53;;;34.63;;
15952;SDS011;8075;47.766;8.846;2022-12-18T07:23:04;58.65;;;33.50;;
15952;SDS011;8075;47.766;8.846;2022-12-18T07:25:33;57.70;;;33.70;;
15952;SDS011;8075;47.766;8.846;2022-12-18T07:27:59;56.28;;;33.10;;
15952;SDS011;8075;47.766;8.846;2022-12-18T07:30:25;59.33;;;33.33;;
15952;SDS011;8075;47.766;8.846;2022-12-18T07:32:51;61.65;;;34.20;;
15952;SDS011;8075;47.766;8.846;2022-12-18T07:35:17;59.73;;;34.27;;
15952;SDS011;8075;47.766;8.846;2022-12-18T07:37:43;62.63;;;34.63;;
15952;SDS011;8075;47.766;8.846;2022-12-18T07:40:10;63.58;;;34.40;;
15952;SDS011;8075;47.766;8.846;2022-12-18T07:42:36;61.47;;;33.70;;
15952;SDS011;8075;47.766;8.846;2022-12-18T07:45:03;62.75;;;33.83;;
15952;SDS011;8075;47.766;8.846;2022-12-18T07:47:29;60.05;;;34.10;;
15952;SDS011;8075;47.766;8.846;2022-12-18T07:49:58;60.42;;;34.50;;
15952;SDS011;8075;47.766;8.846;2022-12-18T07:52:24;59.50;;;33.78;;
15952;SDS011;8075;47.766;8.846;2022-12-18T07:54:50;62.25;;;34.80;;
15952;SDS011;8075;47.766;8.846;2022-12-18T07:57:16;59.53;;;33.03;;
15952;SDS011;8075;47.766;8.846;2022-12-18T07:59:42;61.92;;;34.83;;
15952;SDS011;8075;47.766;8.846;2022-12-18T08:02:08;62.88;;;33.97;;
15952;SDS011;8075;47.766;8.846;2022-12-18T08:04:34;63.10;;;34.72;;
15952;SDS011;8075;47.766;8.846;2022-12-18T08:07:00;58.30;;;33.33;;
15952;SDS011;8075;47.766;8.846;2022-12-18T08:09:26;63.20;;;34.47;;
15952;SDS011;8075;47.766;8.846;2022-12-18T08:11:52;61.83;;;34.28;;
15952;SDS011;8075;47.766;8.846;2022-12-18T08:14:19;57.90;;;33.27;;
15952;SDS011;8075;47.766;8.846;2022-12-18T08:16:45;60.25;;;33.22;;
15952;SDS011;8075;47.766;8.846;2022-12-18T08:19:11;61.58;;;34.35;;
15952;SDS011;8075;47.766;8.846;2022-12-18T08:21:37;61.13;;;34.25;;
15952;SDS011;8075;47.766;8.846;2022-12-18T08:24:06;58.67;;;34.17;;
15952;SDS011;8075;47.766;8.846;2022-12-18T08:26:32;62.47;;;35.05;;
15952;SDS011;8075;47.766;8.846;2022-12-18T08:28:59;61.92;;;34.67;;
15952;SDS011;8075;47.766;8.846;2022-12-18T08:31:25;62.28;;;35.00;;
15952;SDS011;8075;47.766;8.846;2022-12-18T08:33:52;70.90;;;39.83;;
15952;SDS011;8075;47.766;8.846;2022-12-18T08:36:18;60.73;;;33.53;;
15952;SDS011;8075;47.766;8.846;2022-12-18T08:38:45;60.33;;;33.50;;
15952;SDS011;8075;47.766;8.846;2022-12-18T08:41:12;60.15;;;33.67;;
15952;SDS011;8075;47.766;8.846;2022-12-18T08:43:38;58.25;;;33.67;;
15952;SDS011;8075;47.766;8.846;2022-12-18T08:46:23;58.75;;;33.70;;
15952;SDS011;8075;47.766;8.846;2022-12-18T08:48:50;65.03;;;38.38;;
15952;SDS011;8075;47.766;8.846;2022-12-18T08:51:16;61.88;;;35.13;;
15952;SDS011;8075;47.766;8.846;2022-12-18T08:53:42;58.30;;;33.55;;
15952;SDS011;8075;47.766;8.846;2022-12-18T08:56:09;60.55;;;33.72;;
15952;SDS011;8075;47.766;8.846;2022-12-18T08:58:35;66.35;;;35.45;;
15952;SDS011;8075;47.766;8.846;2022-12-18T09:01:02;59.30;;;33.72;;
15952;SDS011;8075;47.766;8.846;2022-12-18T09:03:28;60.10;;;33.92;;
15952;SDS011;8075;47.766;8.846;2022-12-18T09:05:54;60.15;;;34.97;;
15952;SDS011;8075;47.766;8.846;2022-12-18T09:08:20;60.73;;;35.10;;
15952;SDS011;8075;47.766;8.846;2022-12-18T09:10:47;58.60;;;33.70;;
15952;SDS011;8075;47.766;8.846;2022-12-18T09:13:14;57.20;;;33.08;;
15952;SDS011;8075;47.766;8.846;2022-12-18T09:15:44;60.90;;;34.70;;
15952;SDS011;8075;47.766;8.846;2022-12-18T09:18:11;60.10;;;34.90;;
15952;SDS011;8075;47.766;8.846;2022-12-18T09:20:37;62.92;;;37.08;;
15952;SDS011;8075;47.766;8.846;2022-12-18T09:23:04;61.13;;;35.83;;
15952;SDS011;8075;47.766;8.846;2022-12-18T09:25:30;60.33;;;33.78;;
15952;SDS011;8075;47.766;8.846;2022-12-18T09:27:58;58.55;;;33.13;;
15952;SDS011;8075;47.766;8.846;2022-12-18T09:30:25;57.13;;;33.13;;
15952;SDS011;8075;47.766;8.846;2022-12-18T09:32:51;62.00;;;34.25;;
15952;SDS011;8075;47.766;8.846;2022-12-18T09:35:20;58.90;;;33.70;;
15952;SDS011;8075;47.766;8.846;2022-12-18T09:37:46;58.08;;;33.95;;
15952;SDS011;8075;47.766;8.846;2022-12-18T09:40:18;57.70;;;33.40;;
15952;SDS011;8075;47.766;8.846;2022-12-18T09:42:45;61.55;;;35.80;;
15952;SDS011;8075;47.766;8.846;2022-12-18T09:45:13;61.72;;;35.05;;
15952;SDS011;8075;47.766;8.846;2022-12-18T09:47:40;61.05;;;35.05;;
15952;SDS011;8075;47.766;8.846;2022-12-18T09:50:16;56.33;;;33.38;;
15952;SDS011;8075;47.766;8.846;2022-12-18T09:52:48;59.00;;;33.00;;
15952;SDS011;8075;47.766;8.846;2022-12-18T09:55:38;61.08;;;35.10;;
15952;SDS011;8075;47.766;8.846;2022-12-18T09:58:07;59.38;;;33.65;;
15952;SDS011;8075;47.766;8.846;2022-12-18T10:00:37;59.08;;;34.20;;
15952;SDS011;8075;47.766;8.846;2022-12-18T10:03:14;59.13;;;33.40;;
15952;SDS011;8075;47.766;8.846;2022-12-18T10:08:17;59.35;;;34.25;;
15952;SDS011;8075;47.766;8.846;2022-12-18T10:10:53;59.40;;;34.65;;
15952;SDS011;8075;47.766;8.846;2022-12-18T10:15:53;58.75;;;34.25;;
15952;SDS011;8075;47.766;8.846;2022-12-18T10:20:52;67.77;;;36.90;;
15952;SDS011;8075;47.766;8.846;2022-12-18T10:23:28;65.25;;;36.30;;
15952;SDS011;8075;47.766;8.846;2022-12-18T10:26:04;68.57;;;37.17;;
15952;SDS011;8075;47.766;8.846;2022-12-18T10:28:31;65.60;;;36.28;;
15952;SDS011;8075;47.766;8.846;2022-12-18T10:30:58;67.78;;;37.63;;
15952;SDS011;8075;47.766;8.846;2022-12-18T10:33:27;70.18;;;37.60;;
15952;SDS011;8075;47.766;8.846;2022-12-18T10:35:53;68.07;;;36.73;;
15952;SDS011;8075;47.766;8.846;2022-12-18T10:38:21;63.20;;;35.57;;
15952;SDS011;8075;47.766;8.846;2022-12-18T10:43:14;63.05;;;35.50;;
15952;SDS011;8075;47.766;8.846;2022-12-18T10:45:40;60.60;;;35.10;;
15952;SDS011;8075;47.766;8.846;2022-12-18T10:48:19;59.58;;;34.67;;
15952;SDS011;8075;47.766;8.846;2022-12-18T10:50:47;67.53;;;36.65;;
15952;SDS011;8075;47.766;8.846;2022-12-18T10:53:18;64.10;;;35.95;;
15952;SDS011;8075;47.766;8.846;2022-12-18T10:55:45;68.00;;;38.35;;
15952;SDS011;8075;47.766;8.846;2022-12-18T10:58:16;68.20;;;38.05;;
15952;SDS011;8075;47.766;8.846;2022-12-18T11:00:46;66.33;;;36.70;;
15952;SDS011;8075;47.766;8.846;2022-12-18T11:06:06;66.10;;;37.23;;
15952;SDS011;8075;47.766;8.846;2022-12-18T11:08:33;69.60;;;38.15;;
15952;SDS011;8075;47.766;8.846;2022-12-18T11:10:59;66.18;;;37.50;;
15952;SDS011;8075;47.766;8.846;2022-12-18T11:13:26;75.28;;;40.10;;
15952;SDS011;8075;47.766;8.846;2022-12-18T11:15:52;76.95;;;41.45;;
15952;SDS011;8075;47.766;8.846;2022-12-18T11:18:29;69.53;;;38.23;;
15952;SDS011;8075;47.766;8.846;2022-12-18T11:20:56;72.68;;;40.22;;
15952;SDS011;8075;47.766;8.846;2022-12-18T11:23:24;67.15;;;37.72;;
15952;SDS011;8075;47.766;8.846;2022-12-18T11:25:55;65.82;;;36.60;;
15952;SDS011;8075;47.766;8.846;2022-12-18T11:30:50;63.50;;;36.08;;
15952;SDS011;8075;47.766;8.846;2022-12-18T11:33:33;72.95;;;40.28;;
15952;SDS011;8075;47.766;8.846;2022-12-18T11:36:00;83.93;;;42.17;;
15952;SDS011;8075;47.766;8.846;2022-12-18T11:38:29;79.68;;;41.17;;
15952;SDS011;8075;47.766;8.846;2022-12-18T11:43:29;74.93;;;39.72;;
15952;SDS011;8075;47.766;8.846;2022-12-18T11:46:07;73.68;;;40.42;;
15952;SDS011;8075;47.766;8.846;2022-12-18T11:48:41;68.75;;;38.78;;
15952;SDS011;8075;47.766;8.846;2022-12-18T11:51:11;70.33;;;38.33;;
15952;SDS011;8075;47.766;8.846;2022-12-18T11:53:39;63.78;;;36.13;;
15952;SDS011;8075;47.766;8.846;2022-12-18T11:56:16;60.75;;;35.40;;
15952;SDS011;8075;47.766;8.846;2022-12-18T12:04:02;62.00;;;35.72;;
15952;SDS011;8075;47.766;8.846;2022-12-18T12:09:04;63.67;;;37.28;;
15952;SDS011;8075;47.766;8.846;2022-12-18T12:14:37;64.88;;;36.92;;
15952;SDS011;8075;47.766;8.846;2022-12-18T12:19:53;62.08;;;36.20;;
15952;SDS011;8075;47.766;8.846;2022-12-18T12:22:39;63.23;;;36.83;;
15952;SDS011;8075;47.766;8.846;2022-12-18T12:33:22;62.80;;;36.23;;
15952;SDS011;8075;47.766;8.846;2022-12-18T12:35:52;60.47;;;36.20;;
15952;SDS011;8075;47.766;8.846;2022-12-18T12:38:25;60.45;;;35.63;;
15952;SDS011;8075;47.766;8.846;2022-12-18T12:40:54;59.10;;;34.88;;
15952;SDS011;8075;47.766;8.846;2022-12-18T12:43:38;61.25;;;36.65;;
15952;SDS011;8075;47.766;8.846;2022-12-18T12:46:07;58.63;;;34.83;;
15952;SDS011;8075;47.766;8.846;2022-12-18T12:48:45;62.27;;;36.57;;
15952;SDS011;8075;47.766;8.846;2022-12-18T12:53:44;55.78;;;33.08;;
15952;SDS011;8075;47.766;8.846;2022-12-18T12:56:11;55.13;;;33.25;;
15952;SDS011;8075;47.766;8.846;2022-12-18T13:01:08;65.28;;;37.17;;
15952;SDS011;8075;47.766;8.846;2022-12-18T13:03:43;65.90;;;36.88;;
15952;SDS011;8075;47.766;8.846;2022-12-18T13:08:54;66.72;;;36.85;;
15952;SDS011;8075;47.766;8.846;2022-12-18T13:11:28;69.20;;;37.63;;
15952;SDS011;8075;47.766;8.846;2022-12-18T13:14:21;65.03;;;37.35;;
15952;SDS011;8075;47.766;8.846;2022-12-18T13:16:48;64.50;;;35.95;;
15952;SDS011;8075;47.766;8.846;2022-12-18T13:19:21;62.03;;;35.10;;
15952;SDS011;8075;47.766;8.846;2022-12-18T13:21:52;60.63;;;35.35;;
15952;SDS011;8075;47.766;8.846;2022-12-18T13:24:25;56.47;;;34.33;;
15952;SDS011;8075;47.766;8.846;2022-12-18T13:26:51;58.83;;;35.53;;
15952;SDS011;8075;47.766;8.846;2022-12-18T13:32:24;61.22;;;35.70;;
15952;SDS011;8075;47.766;8.846;2022-12-18T13:37:52;59.28;;;35.45;;
15952;SDS011;8075;47.766;8.846;2022-12-18T13:40:48;64.78;;;37.50;;
15952;SDS011;8075;47.766;8.846;2022-12-18T13:45:58;71.50;;;38.03;;
15952;SDS011;8075;47.766;8.846;2022-12-18T13:48:25;82.70;;;43.22;;
15952;SDS011;8075;47.766;8.846;2022-12-18T13:50:59;75.47;;;40.20;;
15952;SDS011;8075;47.766;8.846;2022-12-18T13:53:27;72.43;;;39.30;;
15952;SDS011;8075;47.766;8.846;2022-12-18T13:55:55;70.32;;;38.35;;
15952;SDS011;8075;47.766;8.846;2022-12-18T13:58:21;65.20;;;36.55;;
15952;SDS011;8075;47.766;8.846;2022-12-18T14:00:47;58.58;;;34.92;;
15952;SDS011;8075;47.766;8.846;2022-12-18T14:03:21;59.10;;;34.45;;
15952;SDS011;8075;47.766;8.846;2022-12-18T14:05:52;65.45;;;37.55;;
15952;SDS011;8075;47.766;8.846;2022-12-18T14:08:18;62.08;;;35.50;;
15952;SDS011;8075;47.766;8.846;2022-12-18T14:10:45;62.50;;;36.22;;
15952;SDS011;8075;47.766;8.846;2022-12-18T14:13:15;60.38;;;35.45;;
15952;SDS011;8075;47.766;8.846;2022-12-18T14:15:43;71.00;;;38.30;;
15952;SDS011;8075;47.766;8.846;2022-12-18T14:20:35;72.55;;;39.47;;
15952;SDS011;8075;47.766;8.846;2022-12-18T14:23:02;61.15;;;35.38;;
15952;SDS011;8075;47.766;8.846;2022-12-18T14:25:29;64.05;;;36.13;;
15952;SDS011;8075;47.766;8.846;2022-12-18T14:30:29;64.38;;;36.53;;
15952;SDS011;8075;47.766;8.846;2022-12-18T14:32:59;59.83;;;35.38;;
15952;SDS011;8075;47.766;8.846;2022-12-18T14:35:26;61.08;;;35.17;;
15952;SDS011;8075;47.766;8.846;2022-12-18T14:37:52;56.63;;;34.25;;
15952;SDS011;8075;47.766;8.846;2022-12-18T14:40:18;57.50;;;34.10;;
15952;SDS011;8075;47.766;8.846;2022-12-18T14:42:44;59.00;;;34.65;;
15952;SDS011;8075;47.766;8.846;2022-12-18T14:47:54;60.53;;;34.80;;
15952;SDS011;8075;47.766;8.846;2022-12-18T14:50:20;57.90;;;33.58;;
15952;SDS011;8075;47.766;8.846;2022-12-18T14:52:46;62.47;;;34.78;;
15952;SDS011;8075;47.766;8.846;2022-12-18T14:55:16;58.93;;;34.20;;
15952;SDS011;8075;47.766;8.846;2022-12-18T14:57:43;60.90;;;34.63;;
15952;SDS011;8075;47.766;8.846;2022-12-18T15:00:15;63.58;;;35.45;;
15952;SDS011;8075;47.766;8.846;2022-12-18T15:02:42;62.53;;;35.53;;
15952;SDS011;8075;47.766;8.846;2022-12-18T15:07:57;63.20;;;34.33;;
15952;SDS011;8075;47.766;8.846;2022-12-18T15:12:50;62.50;;;33.75;;
15952;SDS011;8075;47.766;8.846;2022-12-18T15:23:19;58.33;;;33.25;;
15952;SDS011;8075;47.766;8.846;2022-12-18T15:25:46;59.08;;;33.45;;
15952;SDS011;8075;47.766;8.846;2022-12-18T15:28:15;59.77;;;33.30;;
15952;SDS011;8075;47.766;8.846;2022-12-18T15:30:57;60.17;;;33.83;;
15952;SDS011;8075;47.766;8.846;2022-12-18T15:33:25;57.85;;;34.08;;
15952;SDS011;8075;47.766;8.846;2022-12-18T15:35:58;58.58;;;33.55;;
15952;SDS011;8075;47.766;8.846;2022-12-18T15:38:24;58.00;;;32.53;;
15952;SDS011;8075;47.766;8.846;2022-12-18T15:40:50;60.25;;;33.03;;
15952;SDS011;8075;47.766;8.846;2022-12-18T15:43:16;60.17;;;33.17;;
15952;SDS011;8075;47.766;8.846;2022-12-18T15:46:05;57.45;;;32.67;;
15952;SDS011;8075;47.766;8.846;2022-12-18T15:48:32;58.25;;;32.92;;
15952;SDS011;8075;47.766;8.846;2022-12-18T15:50:59;58.95;;;33.75;;
15952;SDS011;8075;47.766;8.846;2022-12-18T15:53:27;58.70;;;34.47;;
15952;SDS011;8075;47.766;8.846;2022-12-18T15:55:53;58.23;;;34.00;;
15952;SDS011;8075;47.766;8.846;2022-12-18T15:58:38;60.17;;;34.57;;
15952;SDS011;8075;47.766;8.846;2022-12-18T16:01:04;60.63;;;33.92;;
15952;SDS011;8075;47.766;8.846;2022-12-18T16:03:30;61.50;;;33.90;;
15952;SDS011;8075;47.766;8.846;2022-12-18T16:05:56;57.30;;;33.53;;
15952;SDS011;8075;47.766;8.846;2022-12-18T16:08:25;57.38;;;33.15;;
15952;SDS011;8075;47.766;8.846;2022-12-18T16:10:51;52.30;;;31.15;;
15952;SDS011;8075;47.766;8.846;2022-12-18T16:13:17;51.55;;;31.05;;
15952;SDS011;8075;47.766;8.846;2022-12-18T16:15:44;54.15;;;30.98;;